createdAt,value
2019-03-08T00:02:21.930Z,6.92
2019-03-08T00:07:27.414Z,6.84
2019-03-08T00:12:32.899Z,6.88
2019-03-08T00:17:38.100Z,6.82
2019-03-08T00:22:43.404Z,6.77
2019-03-08T00:27:48.658Z,6.76
2019-03-08T00:32:54.102Z,6.74
2019-03-08T00:37:59.375Z,6.73
2019-03-08T00:43:04.917Z,6.67
2019-03-08T00:48:10.158Z,6.69
2019-03-08T00:53:15.829Z,6.74
2019-03-08T00:58:21.277Z,6.70
2019-03-08T01:03:26.512Z,6.58
2019-03-08T01:08:32.014Z,6.63
2019-03-08T01:13:37.312Z,6.51
2019-03-08T01:18:42.605Z,6.34
2019-03-08T01:23:47.840Z,6.26
2019-03-08T01:28:53.115Z,6.30
2019-03-08T01:33:58.321Z,6.24
2019-03-08T01:39:04.695Z,6.27
2019-03-08T01:44:09.990Z,6.24
2019-03-08T01:49:15.226Z,6.20
2019-03-08T01:54:20.689Z,6.17
2019-03-08T01:59:25.961Z,6.21
2019-03-08T02:04:32.161Z,6.25
2019-03-08T02:09:37.390Z,6.16
2019-03-08T02:14:42.783Z,6.00
2019-03-08T02:19:48.175Z,5.95
2019-03-08T02:24:53.387Z,5.92
2019-03-08T02:29:58.665Z,5.85
2019-03-08T02:35:04.005Z,5.69
2019-03-08T02:40:27.180Z,5.89
2019-03-08T02:45:32.686Z,5.81
2019-03-08T02:50:38.120Z,5.69
2019-03-08T02:55:43.370Z,5.67
2019-03-08T03:00:48.926Z,5.68
2019-03-08T03:05:54.202Z,5.71
2019-03-08T03:10:59.440Z,5.49
2019-03-08T03:16:04.741Z,5.46
2019-03-08T03:21:09.945Z,5.43
2019-03-08T03:26:15.264Z,5.45
2019-03-08T03:31:20.497Z,5.51
2019-03-08T03:36:25.775Z,5.58
2019-03-08T03:41:31.365Z,5.57
2019-03-08T03:46:36.635Z,5.29
2019-03-08T03:51:41.870Z,5.23
2019-03-08T03:56:47.130Z,5.18
2019-03-08T04:01:52.360Z,5.16
2019-03-08T04:06:57.596Z,5.12
2019-03-08T04:12:02.815Z,5.03
2019-03-08T04:17:08.071Z,5.15
2019-03-08T04:22:13.355Z,5.14
2019-03-08T04:27:18.581Z,5.22
2019-03-08T04:32:23.801Z,5.28
2019-03-08T04:37:29.139Z,5.09
2019-03-08T04:42:34.419Z,4.94
2019-03-08T04:47:39.746Z,4.84
2019-03-08T04:52:45.053Z,4.91
2019-03-08T04:57:50.448Z,5.11
2019-03-08T05:02:55.759Z,5.37
2019-03-08T05:08:00.984Z,5.58
2019-03-08T05:13:06.242Z,5.57
2019-03-08T05:18:11.517Z,5.73
2019-03-08T05:23:16.999Z,6.16
2019-03-08T05:28:22.282Z,6.42
2019-03-08T05:33:27.482Z,6.74
2019-03-08T05:38:32.830Z,7.04
2019-03-08T05:43:38.090Z,6.93
2019-03-08T05:48:43.315Z,6.93
2019-03-08T05:53:48.605Z,6.82
2019-03-08T05:58:53.803Z,7.02
2019-03-08T06:03:59.075Z,7.09
2019-03-08T06:09:05.873Z,7.36
2019-03-08T06:14:11.146Z,7.49
2019-03-08T06:19:16.410Z,7.75
2019-03-08T06:24:21.737Z,7.75
2019-03-08T06:29:27.142Z,7.95
2019-03-08T06:34:32.936Z,7.94
2019-03-08T06:39:38.348Z,8.01
2019-03-08T06:44:43.618Z,7.90
2019-03-08T06:49:48.856Z,7.85
2019-03-08T06:54:54.243Z,7.99
2019-03-08T07:00:07.276Z,8.09
2019-03-08T07:05:12.535Z,8.09
2019-03-08T07:10:17.844Z,8.00
2019-03-08T07:15:23.382Z,7.96
2019-03-08T07:20:36.987Z,7.95
2019-03-08T07:25:54.186Z,7.99
2019-03-08T07:31:11.436Z,8.13
2019-03-08T07:36:24.952Z,8.37
2019-03-08T07:41:38.078Z,8.44
2019-03-08T07:46:52.027Z,8.60
2019-03-08T07:52:07.112Z,8.44
2019-03-08T07:57:21.059Z,8.29
2019-03-08T08:02:34.987Z,8.19
2019-03-08T08:07:46.727Z,8.22
2019-03-08T08:13:02.024Z,8.28
2019-03-08T08:18:14.819Z,8.29
2019-03-08T08:23:34.352Z,8.33
2019-03-08T08:28:50.649Z,8.37
2019-03-08T08:34:05.246Z,8.48
2019-03-08T08:39:32.240Z,8.58
2019-03-08T08:44:49.491Z,8.54
2019-03-08T08:50:03.155Z,8.53
2019-03-08T08:55:19.597Z,8.55
2019-03-08T09:00:31.900Z,8.57
2019-03-08T09:05:42.426Z,8.55
2019-03-08T09:10:54.725Z,8.55
2019-03-08T09:21:26.702Z,8.74
2019-03-08T09:26:39.985Z,8.79
2019-03-08T09:31:53.321Z,8.90
2019-03-08T09:37:09.310Z,9.05
2019-03-08T09:42:22.995Z,9.11
2019-03-08T09:47:36.939Z,9.03
2019-03-08T09:52:51.122Z,9.02
2019-03-08T09:58:15.234Z,9.16
2019-03-08T10:03:39.382Z,9.19
2019-03-08T10:08:53.918Z,9.25
2019-03-08T10:14:09.144Z,9.21
2019-03-08T10:19:30.000Z,9.15
2019-03-08T10:24:51.287Z,9.20
2019-03-08T10:30:04.997Z,9.30
2019-03-08T10:35:23.965Z,9.16
2019-03-08T10:40:34.915Z,9.14
2019-03-08T10:45:50.105Z,9.04
2019-03-08T10:51:01.670Z,9.19
2019-03-08T10:56:23.349Z,9.31
2019-03-08T11:01:35.561Z,9.26
2019-03-08T11:06:50.348Z,9.06
2019-03-08T11:12:03.995Z,8.74
2019-03-08T11:17:11.230Z,8.59
2019-03-08T11:22:25.007Z,8.61
2019-03-08T11:27:44.011Z,8.51
2019-03-08T11:32:57.975Z,8.52
2019-03-08T11:38:11.969Z,8.44
2019-03-08T11:43:28.995Z,8.50
2019-03-08T11:48:46.960Z,8.54
2019-03-08T11:54:05.130Z,8.90
2019-03-08T11:59:23.410Z,9.08
2019-03-08T12:04:36.916Z,9.07
2019-03-08T12:09:47.161Z,9.10
2019-03-08T12:15:00.983Z,8.96
2019-03-08T12:20:14.189Z,8.81
2019-03-08T12:25:34.014Z,9.05
2019-03-08T12:30:52.643Z,9.24
2019-03-08T12:36:05.981Z,9.22
2019-03-08T12:41:25.115Z,9.15
2019-03-08T12:46:39.010Z,9.16
2019-03-08T12:51:53.160Z,9.03
2019-03-08T12:57:06.911Z,8.93
2019-03-08T13:02:19.364Z,9.00
2019-03-08T13:07:34.231Z,8.93
2019-03-08T13:12:39.566Z,9.13
2019-03-08T13:17:45.021Z,9.08
2019-03-08T13:22:50.403Z,9.12
2019-03-08T13:27:55.895Z,9.07
2019-03-08T13:33:01.300Z,9.12
2019-03-08T13:38:09.847Z,9.19
2019-03-08T13:43:15.231Z,9.09
2019-03-08T13:48:20.588Z,9.11
2019-03-08T13:53:25.864Z,9.15
2019-03-08T13:58:31.174Z,9.25
2019-03-08T14:03:36.690Z,9.21
2019-03-08T14:08:41.996Z,9.27
2019-03-08T14:13:47.695Z,9.28
2019-03-08T14:18:52.956Z,9.28
2019-03-08T14:23:58.631Z,9.36
2019-03-08T14:29:03.950Z,9.43
2019-03-08T14:34:10.830Z,9.50
2019-03-08T14:39:17.697Z,9.56
2019-03-08T14:44:34.986Z,9.61
2019-03-08T14:49:40.225Z,9.62
2019-03-08T14:54:46.416Z,9.65
2019-03-08T14:59:53.040Z,9.66
2019-03-08T15:04:59.205Z,9.65
2019-03-08T15:10:07.726Z,9.48
2019-03-08T15:15:13.520Z,9.47
2019-03-08T15:20:19.201Z,9.50
2019-03-08T15:25:31.249Z,9.54
2019-03-08T15:30:35.596Z,9.55
2019-03-08T15:35:40.953Z,9.55
2019-03-08T15:40:46.367Z,9.60
2019-03-08T15:45:53.846Z,9.70
2019-03-08T15:50:59.583Z,9.78
2019-03-08T15:56:05.306Z,9.82
2019-03-08T16:01:10.725Z,9.94
2019-03-08T16:06:16.375Z,10.15
2019-03-08T16:11:21.625Z,10.28
2019-03-08T16:16:27.454Z,10.39
2019-03-08T16:21:32.728Z,10.49
2019-03-08T16:26:38.206Z,10.56
2019-03-08T16:31:49.700Z,10.69
2019-03-08T16:37:00.124Z,10.75
2019-03-08T16:42:10.260Z,10.92
2019-03-08T16:47:24.006Z,10.97
2019-03-08T16:52:38.004Z,10.89
2019-03-08T16:57:54.922Z,10.95
2019-03-08T17:03:09.226Z,10.87
2019-03-08T17:08:21.771Z,10.63
2019-03-08T17:13:37.640Z,10.54
2019-03-08T17:18:54.746Z,10.55
2019-03-08T17:24:08.961Z,10.48
2019-03-08T17:29:23.462Z,10.50
2019-03-08T17:34:41.026Z,10.41
2019-03-08T17:39:53.506Z,10.37
2019-03-08T17:45:07.131Z,10.34
2019-03-08T17:50:21.047Z,10.29
2019-03-08T17:55:36.591Z,10.30
2019-03-08T18:01:00.764Z,10.30
2019-03-08T18:06:15.029Z,10.23
2019-03-08T18:11:39.658Z,10.04
2019-03-08T18:16:54.491Z,9.99
2019-03-08T18:22:06.393Z,9.99
2019-03-08T18:27:20.791Z,9.94
2019-03-08T18:32:32.856Z,9.96
2019-03-08T18:37:45.818Z,9.92
2019-03-08T18:42:57.872Z,9.93
2019-03-08T18:48:12.011Z,9.89
2019-03-08T18:53:26.014Z,9.84
2019-03-08T18:58:40.271Z,9.76
2019-03-08T19:04:04.529Z,9.76
2019-03-08T19:09:18.192Z,9.72
2019-03-08T19:14:36.429Z,9.71
2019-03-08T19:19:50.371Z,9.66
2019-03-08T19:25:05.280Z,9.60
2019-03-08T19:30:22.110Z,9.45
2019-03-08T19:35:42.672Z,9.29
2019-03-08T19:40:55.931Z,9.16
2019-03-08T19:46:12.831Z,9.06
2019-03-08T19:51:35.055Z,9.02
2019-03-08T19:56:46.710Z,8.96
2019-03-08T20:02:00.088Z,8.91
2019-03-08T20:07:23.288Z,8.86
2019-03-08T20:12:36.951Z,8.82
2019-03-08T20:18:01.207Z,8.79
2019-03-08T20:23:15.038Z,8.76
2019-03-08T20:28:28.992Z,8.70
2019-03-08T20:33:44.532Z,8.69
2019-03-08T20:38:58.018Z,8.66
2019-03-08T20:44:11.712Z,8.64
2019-03-08T20:49:17.191Z,8.63
2019-03-08T20:54:22.572Z,8.61
2019-03-08T20:59:28.286Z,8.51
2019-03-08T21:04:34.312Z,8.44
2019-03-08T21:09:42.691Z,8.43
2019-03-08T21:14:48.013Z,8.40
2019-03-08T21:19:53.751Z,8.44
2019-03-08T21:24:59.950Z,8.44
2019-03-08T21:30:07.311Z,8.35
2019-03-08T21:35:15.630Z,8.46
2019-03-08T21:40:21.352Z,8.44
2019-03-08T21:45:26.752Z,8.41
2019-03-08T21:50:32.487Z,8.38
2019-03-08T21:55:37.849Z,8.42
2019-03-08T22:00:43.630Z,8.44
2019-03-08T22:05:48.932Z,8.45
2019-03-08T22:11:04.091Z,8.54
2019-03-08T22:16:09.387Z,8.54
2019-03-08T22:21:14.811Z,8.42
2019-03-08T22:26:22.621Z,8.44
2019-03-08T22:31:27.958Z,8.44
2019-03-08T22:36:33.424Z,8.39
2019-03-08T22:41:38.842Z,8.34
2019-03-08T22:46:45.488Z,8.35
2019-03-08T22:51:51.035Z,8.32
2019-03-08T22:56:56.283Z,8.16
2019-03-08T23:02:08.146Z,8.16
2019-03-08T23:07:13.482Z,8.15
2019-03-08T23:12:18.934Z,8.16
2019-03-08T23:17:24.400Z,8.23
2019-03-08T23:22:29.737Z,8.22
2019-03-08T23:27:39.990Z,8.25
2019-03-08T23:32:48.225Z,8.28
2019-03-08T23:37:53.466Z,8.25
2019-03-08T23:42:58.809Z,8.29
2019-03-08T23:48:04.054Z,8.26
2019-03-08T23:53:09.334Z,8.27
2019-03-08T23:58:14.610Z,8.26
